Time;durP1;ratioP1;P1;durP2;ratioP2;P2;SDS_P1;SDS_P2;PMS_P1;PMS_P2;Temp;Humidity;BMP_temperature;BMP_pressure;BME280_temperature;BME280_humidity;BME280_pressure;Samples;Min_cycle;Max_cycle;Signal;HPM_P1;HPM_P2
2022/11/07 00:01:39;;;;;;;;;;;11.70;80.90;;;;;;9180581;19;20017;-65
2022/11/07 00:04:43;;;;;;;8.70;2.95;;;11.80;81.00;;;;;;9180061;19;19923;-65
2022/11/07 00:07:49;;;;;;;;;;;11.80;80.80;;;;;;9180786;19;20014;-65
2022/11/07 00:10:55;;;;;;;12.40;2.28;;;11.80;81.00;;;;;;9181676;19;20357;-64
2022/11/07 00:13:59;;;;;;;5.18;1.92;;;11.80;80.90;;;;;;9182842;19;20036;-64
2022/11/07 00:17:02;;;;;;;;;;;11.90;81.00;;;;;;9181965;19;20368;-65
2022/11/07 00:20:08;;;;;;;12.30;2.30;;;11.90;81.00;;;;;;9182957;19;19922;-66
2022/11/07 00:23:14;;;;;;;7.38;2.45;;;11.90;80.80;;;;;;9181701;19;20033;-65
2022/11/07 00:26:18;;;;;;;12.02;2.83;;;11.90;80.90;;;;;;9180620;19;20085;-65
2022/11/07 00:29:22;;;;;;;;;;;11.90;80.90;;;;;;9181255;19;20006;-65
2022/11/07 00:32:26;;;;;;;9.10;2.60;;;12.00;81.00;;;;;;9179848;19;19923;-65
2022/11/07 00:35:30;;;;;;;9.88;2.90;;;12.00;80.80;;;;;;9182586;19;20006;-65
2022/11/07 00:38:36;;;;;;;9.60;2.95;;;12.00;80.90;;;;;;9181286;19;20506;-65
2022/11/07 00:41:40;;;;;;;12.15;2.42;;;12.00;81.00;;;;;;9179174;19;20444;-64
2022/11/07 00:44:44;;;;;;;11.52;2.50;;;12.00;81.00;;;;;;9175635;19;20007;-65
2022/11/07 00:47:47;;;;;;;;;;;12.00;81.00;;;;;;9177784;19;20019;-65
2022/11/07 00:50:51;;;;;;;10.85;2.60;;;12.10;81.00;;;;;;9179068;19;19926;-65
2022/11/07 00:53:57;;;;;;;;;;;12.10;80.90;;;;;;9178403;19;20003;-64
2022/11/07 00:57:01;;;;;;;6.57;2.00;;;12.10;81.00;;;;;;9181242;19;19918;-66
2022/11/07 01:00:07;;;;;;;7.38;2.47;;;12.10;80.90;;;;;;9178589;19;20467;-67
2022/11/07 01:06:28;;;;;;;6.45;1.92;;;12.10;81.00;;;;;;9176729;19;20471;-66
2022/11/07 01:09:34;;;;;;;11.13;2.13;;;12.10;81.10;;;;;;9180658;19;20134;-65
2022/11/07 01:12:38;;;;;;;8.82;2.15;;;12.20;81.10;;;;;;9179104;19;20026;-65
2022/11/07 01:15:42;;;;;;;;;;;12.20;81.10;;;;;;9181704;19;20748;-66
2022/11/07 01:18:45;;;;;;;10.57;2.43;;;12.20;81.10;;;;;;9180171;19;19922;-64
2022/11/07 01:21:50;;;;;;;8.43;2.17;;;12.20;81.00;;;;;;9178869;19;20019;-65
2022/11/07 01:24:55;;;;;;;10.88;2.47;;;12.20;81.00;;;;;;9179889;19;20011;-66
2022/11/07 01:27:59;;;;;;;8.02;2.03;;;12.20;81.10;;;;;;9176798;19;20018;-65
2022/11/07 01:31:03;;;;;;;;;;;12.20;81.10;;;;;;9179042;19;20014;-66
2022/11/07 01:34:07;;;;;;;5.55;2.17;;;12.20;81.10;;;;;;9180986;19;19919;-64
2022/11/07 01:37:11;;;;;;;12.77;2.10;;;12.30;81.00;;;;;;9178368;19;20015;-65
2022/11/07 01:40:17;;;;;;;10.00;2.47;;;12.30;81.10;;;;;;9177690;19;20440;-66
2022/11/07 01:43:21;;;;;;;7.15;2.78;;;12.30;81.10;;;;;;9175933;19;20380;-66
2022/11/07 01:46:28;;;;;;;6.53;2.05;;;12.30;81.10;;;;;;9173538;19;20141;-64
2022/11/07 01:49:35;;;;;;;6.85;2.17;;;12.30;81.10;;;;;;9177734;19;20025;-65
2022/11/07 01:52:42;;;;;;;9.85;2.38;;;12.30;81.10;;;;;;9177700;19;20047;-64
2022/11/07 01:55:48;;;;;;;5.22;2.05;;;12.30;81.10;;;;;;9178374;19;20022;-64
2022/11/07 01:58:53;;;;;;;18.48;3.13;;;12.30;81.20;;;;;;9177570;19;20034;-65
2022/11/07 02:01:57;;;;;;;7.57;2.40;;;12.30;81.10;;;;;;9176592;19;20019;-64
2022/11/07 02:05:03;;;;;;;6.32;1.95;;;12.30;81.10;;;;;;9175299;19;20092;-65
2022/11/07 02:08:09;;;;;;;6.63;2.10;;;12.30;81.10;;;;;;9173970;19;20014;-65
2022/11/07 02:11:15;;;;;;;6.05;2.08;;;12.30;81.10;;;;;;9176344;19;20018;-65
2022/11/07 02:14:20;;;;;;;10.55;3.33;;;12.30;81.20;;;;;;9179008;19;20018;-65
2022/11/07 02:17:23;;;;;;;7.70;1.88;;;12.30;81.60;;;;;;9177076;19;20018;-66
2022/11/07 02:20:27;;;;;;;15.07;2.95;;;12.30;81.20;;;;;;9175990;19;20011;-65
2022/11/07 02:23:36;;;;;;;10.93;2.22;;;12.30;81.20;;;;;;9178102;19;20014;-66
2022/11/07 02:26:43;;;;;;;11.57;2.13;;;12.30;81.20;;;;;;9174419;19;20421;-64
2022/11/07 02:29:51;;;;;;;13.60;2.30;;;12.30;81.20;;;;;;9177528;19;20014;-65
2022/11/07 02:32:55;;;;;;;7.03;2.22;;;12.30;81.20;;;;;;9176823;19;20044;-64
2022/11/07 02:35:59;;;;;;;7.38;2.00;;;12.30;81.20;;;;;;9178228;19;20015;-64
2022/11/07 02:39:03;;;;;;;8.13;2.08;;;12.30;81.20;;;;;;9173076;19;20367;-65
2022/11/07 02:42:09;;;;;;;;;;;12.30;81.30;;;;;;9177642;19;20072;-65
2022/11/07 02:45:17;;;;;;;12.30;2.97;;;12.30;81.20;;;;;;9171991;19;19918;-65
2022/11/07 02:48:21;;;;;;;7.85;2.30;;;12.30;81.20;;;;;;9173747;19;20014;-66
2022/11/07 02:51:24;;;;;;;12.07;2.58;;;12.30;81.30;;;;;;9175066;19;20029;-65
2022/11/07 02:54:28;;;;;;;12.55;2.53;;;12.30;81.30;;;;;;9176217;19;20006;-65
2022/11/07 02:57:35;;;;;;;10.02;1.92;;;12.30;81.30;;;;;;9175313;19;20047;-65
2022/11/07 03:00:39;;;;;;;12.40;2.50;;;12.30;81.30;;;;;;9175567;19;20015;-65
2022/11/07 03:03:43;;;;;;;;;;;12.30;81.30;;;;;;9175486;19;20165;-65
2022/11/07 03:06:47;;;;;;;6.63;2.05;;;12.30;81.30;;;;;;9172923;19;19929;-65
2022/11/07 03:09:51;;;;;;;5.57;1.90;;;12.40;81.30;;;;;;9173915;19;20116;-65
2022/11/07 03:12:57;;;;;;;21.42;2.20;;;12.30;81.30;;;;;;9176171;19;20014;-65
2022/11/07 03:16:05;;;;;;;6.30;2.08;;;12.30;81.40;;;;;;9176307;19;20018;-64
2022/11/07 03:19:09;;;;;;;8.30;2.65;;;12.40;81.50;;;;;;9181833;19;20019;-66
2022/11/07 03:22:13;;;;;;;9.80;2.40;;;12.40;81.40;;;;;;9182086;19;20018;-65
2022/11/07 03:25:17;;;;;;;8.73;2.22;;;12.40;81.50;;;;;;9182714;19;20018;-65
2022/11/07 03:28:23;;;;;;;9.15;1.95;;;12.40;81.50;;;;;;9179153;19;20021;-64
2022/11/07 03:31:27;;;;;;;18.10;2.42;;;12.50;81.60;;;;;;9182996;19;20011;-64
2022/11/07 03:34:31;;;;;;;9.50;2.60;;;12.40;81.40;;;;;;9182892;19;20724;-67
2022/11/07 03:37:35;;;;;;;7.20;2.30;;;12.50;81.50;;;;;;9181926;19;20023;-64
2022/11/07 03:40:39;;;;;;;16.60;3.05;;;12.50;81.60;;;;;;9183285;19;20010;-65
2022/11/07 03:43:46;;;;;;;5.80;2.10;;;12.50;81.50;;;;;;9184146;19;20026;-65
2022/11/07 03:46:50;;;;;;;6.35;2.13;;;12.50;81.50;;;;;;9176598;19;20022;-64
2022/11/07 03:49:53;;;;;;;;;;;12.50;81.50;;;;;;9184171;19;20495;-65
2022/11/07 03:52:57;;;;;;;7.68;2.03;;;12.50;81.50;;;;;;9182358;19;19915;-66
2022/11/07 03:56:01;;;;;;;9.68;2.60;;;12.50;81.40;;;;;;9183200;19;20406;-64
2022/11/07 03:59:07;;;;;;;11.55;2.45;;;12.60;81.50;;;;;;9182577;19;20047;-65
2022/11/07 04:02:11;;;;;;;10.23;3.00;;;12.60;81.50;;;;;;9181027;19;20023;-65
2022/11/07 04:05:14;;;;;;;;;;;12.60;81.50;;;;;;9181760;19;20018;-65
2022/11/07 04:08:19;;;;;;;6.75;2.67;;;12.60;81.40;;;;;;9177699;19;19934;-65
2022/11/07 04:17:59;;;;;;;10.05;1.60;;;12.60;81.40;;;;;;9181550;19;20014;-65
2022/11/07 04:21:02;;;;;;;;;;;12.60;81.40;;;;;;9181241;19;20451;-65
2022/11/07 04:24:07;;;;;;;15.20;2.47;;;12.60;81.40;;;;;;9180149;19;19951;-66
2022/11/07 04:30:36;;;;;;;9.60;3.28;;;12.60;81.40;;;;;;9179102;19;20018;-64
2022/11/07 04:33:40;;;;;;;8.32;2.60;;;12.60;81.40;;;;;;9179909;19;20503;-65
2022/11/07 04:36:44;;;;;;;9.23;2.45;;;12.60;81.40;;;;;;9181120;19;20022;-65
2022/11/07 04:39:47;;;;;;;7.53;1.98;;;12.60;81.50;;;;;;9180779;19;20043;-65
2022/11/07 04:42:52;;;;;;;8.13;2.13;;;12.60;81.50;;;;;;9180147;19;20014;-66
2022/11/07 04:45:57;;;;;;;11.45;2.50;;;12.60;81.50;;;;;;9177353;19;20071;-66
2022/11/07 04:49:01;;;;;;;8.00;2.03;;;12.60;81.50;;;;;;9178901;19;20041;-66
2022/11/07 04:52:05;;;;;;;19.35;3.90;;;12.60;81.50;;;;;;9180281;19;20026;-66
2022/11/07 04:55:11;;;;;;;10.02;2.45;;;12.60;81.50;;;;;;9179759;19;20462;-65
2022/11/07 04:58:14;;;;;;;10.52;2.42;;;12.60;81.60;;;;;;9179697;19;20404;-66
2022/11/07 05:01:20;;;;;;;9.10;2.55;;;12.60;81.60;;;;;;9179749;19;20010;-65
2022/11/07 05:04:24;;;;;;;11.10;2.90;;;12.60;81.60;;;;;;9177366;19;20037;-66
2022/11/07 05:07:28;;;;;;;;;;;12.60;81.60;;;;;;9177901;19;20026;-65
2022/11/07 05:10:32;;;;;;;9.75;2.47;;;12.60;81.60;;;;;;9181062;19;19931;-66
2022/11/07 05:13:36;;;;;;;13.70;2.47;;;12.60;81.40;;;;;;9181536;19;20010;-65
2022/11/07 05:16:44;;;;;;;13.05;2.75;;;12.60;81.60;;;;;;9178444;19;20019;-65
2022/11/07 05:19:48;;;;;;;11.70;2.60;;;12.60;81.60;;;;;;9181263;19;20019;-65
2022/11/07 05:26:10;;;;;;;12.23;2.83;;;12.60;81.60;;;;;;9177201;19;20054;-66
2022/11/07 05:29:14;;;;;;;13.88;2.78;;;12.60;81.70;;;;;;9180756;19;20010;-65
2022/11/07 05:32:20;;;;;;;7.18;1.90;;;12.60;81.70;;;;;;9178971;19;20475;-66
2022/11/07 05:35:24;;;;;;;18.00;3.88;;;12.60;81.70;;;;;;9177583;19;20086;-65
2022/11/07 05:38:28;;;;;;;7.85;2.22;;;12.60;81.70;;;;;;9180456;19;20347;-64
2022/11/07 05:41:32;;;;;;;15.68;2.78;;;12.60;81.80;;;;;;9176449;19;20489;-65
2022/11/07 05:44:36;;;;;;;12.90;2.58;;;12.60;81.80;;;;;;9174247;19;20018;-65
2022/11/07 05:47:42;;;;;;;20.80;3.53;;;12.60;81.80;;;;;;9176198;19;20031;-65
2022/11/07 05:50:46;;;;;;;18.38;2.67;;;12.60;81.80;;;;;;9176809;19;20478;-66
2022/11/07 05:53:50;;;;;;;;;;;12.60;81.90;;;;;;9179019;19;20015;-64
2022/11/07 05:56:56;;;;;;;10.18;2.25;;;12.60;81.80;;;;;;9176786;19;19926;-65
2022/11/07 06:00:00;;;;;;;18.52;2.40;;;12.60;81.70;;;;;;9179059;19;20536;-65
2022/11/07 06:03:07;;;;;;;9.95;2.53;;;12.60;81.80;;;;;;9177949;19;20470;-65
2022/11/07 06:06:11;;;;;;;12.93;2.33;;;12.60;81.80;;;;;;9178127;19;20023;-65
2022/11/07 06:09:15;;;;;;;15.52;2.42;;;12.60;82.50;;;;;;9179337;19;20014;-66
2022/11/07 06:12:19;;;;;;;13.15;2.97;;;12.70;81.90;;;;;;9177225;19;20022;-66
2022/11/07 06:15:23;;;;;;;12.63;2.20;;;12.60;81.90;;;;;;9178661;19;20017;-65
2022/11/07 06:18:28;;;;;;;21.80;2.67;;;12.70;81.90;;;;;;9176905;19;20018;-66
2022/11/07 06:21:32;;;;;;;15.80;2.65;;;12.70;81.90;;;;;;9176980;19;20380;-66
2022/11/07 06:24:36;;;;;;;16.33;2.60;;;12.70;82.00;;;;;;9174217;19;20332;-65
2022/11/07 06:27:40;;;;;;;11.30;2.65;;;12.70;82.00;;;;;;9174224;19;20014;-66
2022/11/07 06:30:45;;;;;;;10.52;2.20;;;12.70;82.00;;;;;;9178426;19;20014;-65
2022/11/07 06:33:53;;;;;;;16.55;3.13;;;12.70;82.00;;;;;;9176480;19;20031;-66
2022/11/07 06:36:58;;;;;;;13.48;3.15;;;12.70;82.00;;;;;;9176514;19;20041;-65
2022/11/07 06:40:08;;;;;;;20.20;3.72;;;12.70;82.10;;;;;;9175639;19;20022;-64
2022/11/07 06:43:14;;;;;;;16.40;2.50;;;12.70;82.10;;;;;;9177514;19;20022;-65
2022/11/07 06:46:21;;;;;;;21.02;3.60;;;12.60;82.00;;;;;;9170420;19;20018;-65
2022/11/07 06:49:27;;;;;;;11.25;2.50;;;12.70;82.00;;;;;;9177432;19;20043;-66
2022/11/07 06:52:31;;;;;;;8.10;2.55;;;12.70;82.10;;;;;;9173208;19;20014;-66
2022/11/07 06:55:35;;;;;;;15.25;2.13;;;12.70;82.10;;;;;;9176466;19;20493;-65
2022/11/07 06:58:39;;;;;;;17.48;3.83;;;12.70;82.10;;;;;;9177434;19;20508;-66
2022/11/07 07:01:43;;;;;;;;;;;12.70;82.10;;;;;;9179157;19;20087;-66
2022/11/07 07:04:50;;;;;;;11.57;2.35;;;12.70;82.10;;;;;;9171609;19;19927;-66
2022/11/07 07:07:55;;;;;;;17.38;3.05;;;12.70;82.00;;;;;;9172245;19;20365;-66
2022/11/07 07:11:03;;;;;;;16.73;2.70;;;12.70;82.00;;;;;;9176482;19;20019;-67
2022/11/07 07:14:07;;;;;;;14.32;2.58;;;12.70;82.10;;;;;;9167661;19;20010;-66
2022/11/07 07:17:15;;;;;;;12.70;2.90;;;12.70;82.10;;;;;;9165941;19;20342;-66
2022/11/07 07:20:21;;;;;;;13.63;3.08;;;12.70;82.10;;;;;;9164765;19;20025;-67
2022/11/07 07:23:25;;;;;;;13.50;2.55;;;12.70;82.10;;;;;;9160997;19;20018;-66
2022/11/07 07:26:29;;;;;;;20.70;3.10;;;12.70;82.10;;;;;;9159483;19;20015;-66
2022/11/07 07:29:33;;;;;;;15.73;2.97;;;12.80;82.10;;;;;;9161516;19;20042;-67
2022/11/07 07:32:37;;;;;;;20.77;2.90;;;12.80;82.10;;;;;;9162048;19;20045;-65
2022/11/07 07:35:43;;;;;;;23.42;3.65;;;12.80;82.10;;;;;;9163658;19;20025;-68
2022/11/07 07:38:47;;;;;;;9.55;2.58;;;12.80;82.10;;;;;;9163059;19;20049;-66
2022/11/07 07:41:51;;;;;;;12.13;2.22;;;12.80;82.10;;;;;;9167123;19;20026;-65
2022/11/07 07:44:58;;;;;;;16.10;3.33;;;12.80;82.10;;;;;;9162921;19;20014;-66
2022/11/07 07:48:02;;;;;;;13.63;3.35;;;12.90;82.10;;;;;;9163776;19;20022;-65
2022/11/07 07:51:08;;;;;;;22.88;4.30;;;12.90;82.10;;;;;;9166433;19;20011;-67
2022/11/07 07:54:12;;;;;;;23.55;2.88;;;12.90;82.20;;;;;;9164968;19;20015;-66
2022/11/07 07:57:17;;;;;;;17.45;2.70;;;12.90;82.20;;;;;;9165636;19;20578;-66
2022/11/07 08:00:20;;;;;;;13.18;3.00;;;12.90;82.20;;;;;;9173222;19;20010;-66
2022/11/07 08:03:25;;;;;;;12.70;2.55;;;12.90;82.10;;;;;;9172447;19;20039;-68
2022/11/07 08:06:33;;;;;;;22.60;3.10;;;13.00;82.20;;;;;;9180661;19;20029;-67
2022/11/07 08:09:37;;;;;;;15.07;3.60;;;13.00;82.10;;;;;;9181349;19;20010;-67
2022/11/07 08:12:45;;;;;;;15.85;2.50;;;13.00;82.10;;;;;;9181580;19;20017;-67
2022/11/07 08:15:49;;;;;;;14.27;2.60;;;13.00;82.10;;;;;;9179495;19;20023;-68
2022/11/07 08:18:53;;;;;;;13.43;2.72;;;13.10;82.10;;;;;;9182786;19;20027;-66
2022/11/07 08:21:59;;;;;;;13.30;2.17;;;13.10;82.10;;;;;;9182737;19;20486;-68
2022/11/07 08:25:03;;;;;;;13.63;2.28;;;13.10;82.10;;;;;;9182060;19;20011;-67
2022/11/07 08:28:07;;;;;;;14.60;2.78;;;13.10;82.10;;;;;;9180243;19;20010;-67
2022/11/07 08:31:12;;;;;;;;;;;13.20;82.10;;;;;;9182083;19;20364;-66
2022/11/07 08:34:16;;;;;;;13.00;2.80;;;13.20;82.10;;;;;;9180690;19;19944;-66
2022/11/07 08:37:22;;;;;;;7.65;2.03;;;13.20;82.00;;;;;;9181569;19;20444;-67
2022/11/07 08:40:27;;;;;;;11.88;2.53;;;13.20;82.00;;;;;;9180287;19;20437;-66
2022/11/07 08:43:31;;;;;;;12.35;2.55;;;13.30;82.10;;;;;;9182177;19;20015;-66
2022/11/07 08:46:34;;;;;;;;;;;13.30;82.00;;;;;;9177885;19;20462;-66
2022/11/07 08:49:38;;;;;;;22.33;3.08;;;13.30;82.00;;;;;;9179656;19;19929;-67
2022/11/07 08:52:44;;;;;;;13.15;3.08;;;13.30;81.90;;;;;;9181819;19;20494;-66
2022/11/07 08:55:48;;;;;;;15.45;2.40;;;13.30;82.20;;;;;;9178604;19;20022;-66
2022/11/07 08:58:52;;;;;;;14.68;2.40;;;13.40;81.90;;;;;;9173680;19;20416;-66
2022/11/07 09:01:56;;;;;;;;;;;13.40;82.00;;;;;;9171477;19;20011;-66
2022/11/07 09:05:19;;;;;;;13.70;2.10;;;13.40;81.90;;;;;;9170921;19;20530;-66
2022/11/07 09:08:25;;;;;;;18.70;2.65;;;13.40;81.90;;;;;;9172709;19;20021;-66
2022/11/07 09:11:29;;;;;;;10.73;2.33;;;13.50;81.90;;;;;;9168097;19;20035;-67
2022/11/07 09:14:33;;;;;;;12.77;2.15;;;13.50;81.90;;;;;;9169278;19;20025;-65
2022/11/07 09:17:36;;;;;;;17.33;2.40;;;13.50;81.90;;;;;;9170855;19;20457;-65
2022/11/07 09:20:40;;;;;;;11.07;2.40;;;13.50;81.90;;;;;;9172159;19;20117;-67
2022/11/07 09:23:46;;;;;;;11.15;2.55;;;13.60;82.00;;;;;;9174877;19;20454;-66
2022/11/07 09:26:51;;;;;;;14.43;2.40;;;13.60;82.00;;;;;;9169516;19;20015;-66
2022/11/07 09:29:55;;;;;;;17.35;2.65;;;13.60;81.90;;;;;;9168887;19;20010;-64
2022/11/07 09:32:59;;;;;;;15.43;2.80;;;13.60;81.90;;;;;;9169528;19;20046;-66
2022/11/07 09:36:03;;;;;;;;;;;13.70;81.90;;;;;;9172429;19;20014;-65
2022/11/07 09:39:09;;;;;;;14.43;2.65;;;13.70;81.90;;;;;;9171876;19;19922;-67
2022/11/07 09:42:22;;;;;;;12.15;2.03;;;13.80;81.90;;;;;;9169347;19;20022;-65
2022/11/07 09:45:26;;;;;;;17.03;2.70;;;13.80;81.90;;;;;;9174167;19;20014;-67
2022/11/07 09:48:39;;;;;;;11.38;2.17;;;13.80;81.90;;;;;;9169480;19;20027;-65
2022/11/07 09:51:47;;;;;;;13.80;3.00;;;13.80;81.90;;;;;;9167331;19;20019;-65
2022/11/07 09:54:59;;;;;;;12.63;2.20;;;13.80;81.90;;;;;;9167202;19;20035;-66
2022/11/07 09:58:07;;;;;;;8.35;2.08;;;13.90;81.90;;;;;;9172886;19;20049;-66
2022/11/07 10:01:14;;;;;;;15.43;2.35;;;14.00;81.90;;;;;;9168904;19;20100;-66
2022/11/07 10:04:20;;;;;;;8.95;1.95;;;14.00;81.80;;;;;;9165732;19;20017;-65
2022/11/07 10:07:39;;;;;;;17.35;3.55;;;14.10;81.90;;;;;;9164381;19;20351;-66
2022/11/07 10:10:52;;;;;;;12.53;2.50;;;14.20;82.50;;;;;;9169707;19;20082;-66
2022/11/07 10:14:03;;;;;;;9.13;2.00;;;14.20;81.80;;;;;;9169748;19;20022;-66
2022/11/07 10:17:16;;;;;;;9.48;2.20;;;14.30;81.80;;;;;;9170203;19;20018;-67
2022/11/07 10:20:32;;;;;;;14.85;2.47;;;14.40;81.70;;;;;;9163123;19;20026;-66
2022/11/07 10:23:52;;;;;;;11.68;2.40;;;14.40;81.50;;;;;;9167734;19;20014;-69
2022/11/07 10:26:59;;;;;;;15.60;2.13;;;14.50;81.50;;;;;;9167918;19;20010;-67
2022/11/07 10:30:03;;;;;;;9.70;2.40;;;14.50;81.40;;;;;;9170478;19;20022;-65
2022/11/07 10:33:18;;;;;;;18.20;2.92;;;14.60;81.40;;;;;;9168418;19;20023;-66
2022/11/07 10:36:25;;;;;;;12.90;2.05;;;14.60;81.40;;;;;;9171797;19;20040;-66
2022/11/07 10:39:31;;;;;;;14.45;2.17;;;14.60;81.40;;;;;;9169730;19;20045;-66
2022/11/07 10:42:36;;;;;;;18.08;2.28;;;14.70;81.40;;;;;;9174478;19;20019;-66
2022/11/07 10:45:41;;;;;;;13.45;1.92;;;14.70;81.30;;;;;;9170218;19;20026;-67
2022/11/07 10:48:52;;;;;;;16.50;3.03;;;14.70;81.30;;;;;;9164223;19;20010;-69
2022/11/07 10:52:06;;;;;;;15.02;2.55;;;14.80;81.30;;;;;;9166696;19;20027;-68
2022/11/07 10:55:15;;;;;;;;;;;14.80;81.30;;;;;;9164836;19;20022;-68
2022/11/07 10:58:24;;;;;;;13.15;2.13;;;14.80;81.20;;;;;;9168763;19;19922;-65
2022/11/07 11:01:28;;;;;;;9.25;1.98;;;14.80;81.10;;;;;;9168293;19;20026;-66
2022/11/07 11:04:34;;;;;;;15.30;2.47;;;14.80;81.10;;;;;;9165501;19;20025;-65
2022/11/07 11:07:39;;;;;;;14.57;2.05;;;14.90;81.20;;;;;;9167968;19;20466;-65
2022/11/07 11:10:44;;;;;;;19.30;2.70;;;14.90;81.20;;;;;;9169097;19;20022;-65
2022/11/07 11:13:50;;;;;;;10.95;2.42;;;14.90;81.20;;;;;;9167221;19;20110;-67
2022/11/07 11:16:57;;;;;;;12.35;2.47;;;14.90;81.10;;;;;;9166036;19;20020;-66
2022/11/07 11:20:01;;;;;;;14.55;2.15;;;15.00;81.10;;;;;;9164280;19;20015;-65
2022/11/07 11:23:08;;;;;;;9.75;1.83;;;15.00;81.10;;;;;;9168411;19;20015;-66
2022/11/07 11:26:22;;;;;;;16.67;2.08;;;15.00;81.10;;;;;;9168744;19;20014;-67
2022/11/07 11:29:35;;;;;;;13.43;2.70;;;15.00;81.10;;;;;;9165237;19;20425;-66
2022/11/07 11:32:50;;;;;;;13.30;1.88;;;15.00;81.10;;;;;;9166913;19;20479;-65
2022/11/07 11:35:59;;;;;;;16.67;2.60;;;15.00;81.00;;;;;;9165646;19;20014;-69
2022/11/07 11:39:06;;;;;;;11.82;2.13;;;15.00;81.00;;;;;;9171413;19;20047;-68
2022/11/07 11:42:20;;;;;;;14.20;2.67;;;15.00;81.00;;;;;;9174186;19;20019;-67
2022/11/07 11:45:34;;;;;;;11.15;1.67;;;15.00;80.90;;;;;;9166038;19;20019;-67
2022/11/07 11:48:42;;;;;;;10.25;2.70;;;15.00;80.90;;;;;;9173644;19;20093;-67
2022/11/07 11:51:50;;;;;;;9.50;2.95;;;15.00;81.00;;;;;;9175478;19;20044;-68
2022/11/07 11:54:57;;;;;;;9.02;1.98;;;15.00;80.90;;;;;;9175330;19;20022;-66
2022/11/07 11:58:08;;;;;;;15.57;2.50;;;15.00;80.90;;;;;;9174121;19;20504;-67
2022/11/07 12:01:26;;;;;;;11.73;2.13;;;15.10;80.90;;;;;;9175576;19;20010;-66
2022/11/07 12:04:58;;;;;;;7.60;1.77;;;15.10;80.90;;;;;;9175344;19;20154;-67
2022/11/07 12:08:15;;;;;;;14.20;2.00;;;15.10;81.60;;;;;;9172959;19;20354;-67
2022/11/07 12:11:27;;;;;;;20.00;3.85;;;15.10;80.90;;;;;;9174308;19;20018;-68
2022/11/07 12:15:03;;;;;;;12.48;2.15;;;15.10;80.90;;;;;;9176266;19;20057;-66
2022/11/07 12:18:21;;;;;;;17.88;2.53;;;15.10;80.90;;;;;;9174326;19;20019;-67
2022/11/07 12:21:32;;;;;;;14.90;2.78;;;15.20;80.90;;;;;;9171768;19;20021;-67
2022/11/07 12:24:45;;;;;;;19.77;2.75;;;15.20;80.90;;;;;;9176106;19;20015;-67
2022/11/07 12:27:57;;;;;;;9.95;2.85;;;15.20;80.80;;;;;;9171814;19;20015;-68
2022/11/07 12:31:14;;;;;;;13.90;2.50;;;15.20;80.80;;;;;;9174878;19;20011;-68
2022/11/07 12:34:34;;;;;;;19.23;2.78;;;15.20;80.80;;;;;;9180301;19;20014;-66
2022/11/07 12:38:03;;;;;;;8.25;2.38;;;15.20;80.70;;;;;;9175899;19;20018;-67
2022/11/07 12:41:19;;;;;;;13.02;2.45;;;15.20;80.70;;;;;;9179182;19;20017;-66
2022/11/07 12:44:46;;;;;;;17.35;2.38;;;15.20;80.70;;;;;;9179557;19;20474;-67
2022/11/07 12:48:11;;;;;;;12.10;2.50;;;15.20;81.30;;;;;;9175841;19;20018;-66
2022/11/07 12:51:30;;;;;;;11.77;2.63;;;15.20;80.70;;;;;;9173351;19;20015;-67
2022/11/07 12:54:47;;;;;;;16.08;2.60;;;15.20;80.60;;;;;;9174837;19;20021;-66
2022/11/07 12:57:54;;;;;;;19.25;3.70;;;15.20;80.70;;;;;;9173281;19;20519;-66
2022/11/07 13:00:58;;;;;;;16.70;3.00;;;15.20;80.60;;;;;;9174713;19;20014;-68
2022/11/07 13:04:11;;;;;;;17.05;3.10;;;15.20;80.60;;;;;;9170640;19;20112;-67
2022/11/07 13:07:22;;;;;;;10.02;1.98;;;15.20;80.60;;;;;;9179264;19;20011;-66
2022/11/07 13:10:34;;;;;;;9.63;2.28;;;15.20;80.60;;;;;;9181878;19;20044;-66
2022/11/07 13:13:54;;;;;;;21.25;3.28;;;15.20;80.60;;;;;;9180982;19;20014;-66
2022/11/07 13:17:14;;;;;;;20.02;2.60;;;15.20;80.60;;;;;;9181010;19;20018;-66
2022/11/07 13:20:32;;;;;;;19.30;2.95;;;15.20;80.50;;;;;;9176215;19;20557;-66
2022/11/07 13:23:39;;;;;;;8.32;2.00;;;15.20;80.50;;;;;;9179032;19;20015;-67
2022/11/07 13:26:43;;;;;;;15.50;2.90;;;15.20;80.50;;;;;;9179672;19;20018;-66
2022/11/07 13:29:52;;;;;;;9.00;1.90;;;15.20;80.50;;;;;;9177864;19;20504;-66
2022/11/07 13:32:56;;;;;;;12.50;2.65;;;15.20;80.50;;;;;;9180310;19;20011;-66
2022/11/07 13:36:00;;;;;;;;;;;15.20;80.50;;;;;;9181107;19;20018;-66
2022/11/07 13:39:08;;;;;;;13.35;2.42;;;15.20;80.50;;;;;;9178512;19;20284;-66
2022/11/07 13:42:17;;;;;;;12.35;2.83;;;15.20;80.50;;;;;;9178671;19;20015;-67
2022/11/07 13:45:28;;;;;;;17.35;2.78;;;15.20;80.50;;;;;;9178247;19;20410;-68
2022/11/07 13:48:39;;;;;;;14.65;2.65;;;15.20;80.50;;;;;;9177354;19;20011;-68
2022/11/07 13:51:47;;;;;;;16.23;2.70;;;15.20;80.50;;;;;;9178647;19;20045;-66
2022/11/07 13:54:58;;;;;;;10.77;2.45;;;15.20;80.50;;;;;;9176278;19;20014;-67
2022/11/07 13:58:07;;;;;;;12.30;3.45;;;15.20;80.50;;;;;;9176291;19;20484;-66
2022/11/07 14:01:13;;;;;;;15.93;3.40;;;15.20;80.50;;;;;;9173807;19;20021;-67
2022/11/07 14:04:19;;;;;;;14.55;3.63;;;15.20;80.50;;;;;;9173810;19;20018;-67
2022/11/07 14:07:24;;;;;;;15.35;2.95;;;15.20;80.50;;;;;;9165270;19;21273;-66
2022/11/07 14:10:38;;;;;;;21.90;2.75;;;15.20;80.50;;;;;;9167994;19;20435;-67
2022/11/07 14:13:42;;;;;;;13.75;2.30;;;15.20;80.50;;;;;;9167482;19;20021;-68
2022/11/07 14:16:47;;;;;;;15.50;3.33;;;15.20;80.50;;;;;;9166202;19;20019;-68
2022/11/07 14:19:51;;;;;;;12.10;2.33;;;15.20;80.40;;;;;;9168939;19;20014;-67
2022/11/07 14:23:00;;;;;;;16.45;2.63;;;15.20;80.50;;;;;;9173718;19;20018;-67
2022/11/07 14:26:17;;;;;;;13.55;2.40;;;15.20;80.50;;;;;;9173789;19;20022;-68
2022/11/07 14:29:23;;;;;;;19.10;2.53;;;15.20;80.40;;;;;;9171042;19;20018;-68
2022/11/07 14:32:27;;;;;;;14.02;2.00;;;15.20;80.50;;;;;;9172373;19;20022;-66
2022/11/07 14:35:37;;;;;;;18.30;2.42;;;15.20;80.40;;;;;;9173231;19;20014;-68
2022/11/07 14:38:48;;;;;;;9.85;2.03;;;15.20;80.40;;;;;;9175356;19;20014;-67
2022/11/07 14:41:58;;;;;;;16.77;2.80;;;15.20;80.40;;;;;;9172183;19;20094;-67
2022/11/07 14:45:03;;;;;;;15.13;2.80;;;15.20;80.30;;;;;;9174297;19;20476;-67
2022/11/07 14:48:08;;;;;;;12.20;2.20;;;15.20;80.30;;;;;;9172688;19;20046;-67
2022/11/07 14:51:14;;;;;;;15.13;2.50;;;15.20;80.30;;;;;;9173652;19;20027;-67
2022/11/07 14:54:20;;;;;;;17.13;2.55;;;15.20;80.30;;;;;;9172998;19;20018;-66
2022/11/07 14:57:26;;;;;;;11.73;2.03;;;15.20;80.30;;;;;;9172981;19;20165;-67
2022/11/07 15:00:31;;;;;;;16.40;3.70;;;15.20;80.20;;;;;;9175224;19;20471;-67
2022/11/07 15:03:36;;;;;;;14.30;2.63;;;15.20;80.20;;;;;;9173726;19;20114;-67
2022/11/07 15:06:44;;;;;;;9.73;2.33;;;15.20;80.20;;;;;;9172767;19;20018;-67
2022/11/07 15:09:48;;;;;;;14.75;2.00;;;15.20;80.20;;;;;;9169476;19;20846;-67
2022/11/07 15:12:56;;;;;;;14.95;2.92;;;15.20;80.20;;;;;;9171577;19;20523;-67
2022/11/07 15:16:06;;;;;;;13.55;2.58;;;15.20;80.10;;;;;;9171889;19;20014;-68
2022/11/07 15:19:18;;;;;;;16.38;2.58;;;15.20;80.20;;;;;;9171911;19;20025;-67
2022/11/07 15:22:28;;;;;;;14.38;2.38;;;15.20;80.10;;;;;;9168000;19;20490;-67
2022/11/07 15:25:36;;;;;;;12.68;2.72;;;15.20;80.10;;;;;;9171441;19;20082;-67
2022/11/07 15:28:50;;;;;;;18.20;2.65;;;15.20;80.10;;;;;;9170650;19;20033;-67
2022/11/07 15:31:54;;;;;;;16.42;2.50;;;15.20;80.10;;;;;;9173838;19;20022;-66
2022/11/07 15:34:58;;;;;;;14.23;2.42;;;15.20;80.10;;;;;;9172499;19;20030;-67
2022/11/07 15:38:25;;;;;;;9.00;1.90;;;15.20;80.10;;;;;;9172451;19;20026;-68
2022/11/07 15:41:29;;;;;;;12.63;1.75;;;15.20;80.10;;;;;;9171533;19;20010;-67
2022/11/07 15:44:35;;;;;;;15.30;3.58;;;15.20;80.10;;;;;;9171943;19;20022;-68
2022/11/07 15:47:39;;;;;;;13.77;2.33;;;15.20;80.10;;;;;;9172778;19;20026;-66
2022/11/07 15:50:45;;;;;;;14.13;2.35;;;15.20;80.10;;;;;;9172720;19;20014;-67
2022/11/07 15:53:49;;;;;;;16.80;2.72;;;15.20;80.10;;;;;;9171429;19;20102;-67
2022/11/07 15:57:02;;;;;;;17.63;2.60;;;15.10;80.10;;;;;;9171227;19;20018;-67
2022/11/07 16:00:14;;;;;;;21.58;2.38;;;15.10;80.10;;;;;;9172484;19;20011;-68
2022/11/07 16:03:20;;;;;;;16.42;2.13;;;15.10;80.10;;;;;;9171157;19;20459;-67
2022/11/07 16:06:29;;;;;;;17.85;2.63;;;15.10;80.10;;;;;;9171713;19;20082;-67
2022/11/07 16:09:34;;;;;;;10.32;2.22;;;15.10;80.10;;;;;;9167200;19;20029;-68
2022/11/07 16:12:38;;;;;;;8.20;1.63;;;15.00;80.10;;;;;;9170688;19;20018;-67
2022/11/07 16:15:47;;;;;;;15.85;2.58;;;15.10;80.20;;;;;;9172366;19;20390;-67
2022/11/07 16:18:53;;;;;;;20.33;2.55;;;15.10;80.20;;;;;;9172463;19;20023;-66
2022/11/07 16:21:57;;;;;;;10.30;2.60;;;15.10;80.20;;;;;;9166705;19;20022;-65
2022/11/07 16:25:01;;;;;;;13.43;2.58;;;15.10;80.20;;;;;;9172736;19;20014;-67
2022/11/07 16:28:06;;;;;;;12.93;2.60;;;15.00;80.20;;;;;;9173849;19;20022;-66